sensor_id;sensor_type;location;lat;lon;timestamp;P1;durP1;ratioP1;P2;durP2;ratioP2
42726;SDS011;28372;56.832;60.658;2022-09-02T00:01:41;18.58;;;9.18;;
42726;SDS011;28372;56.832;60.658;2022-09-02T00:04:12;23.83;;;8.48;;
42726;SDS011;28372;56.832;60.658;2022-09-02T00:06:45;36.80;;;8.90;;
42726;SDS011;28372;56.832;60.658;2022-09-02T00:09:15;22.02;;;7.95;;
42726;SDS011;28372;56.832;60.658;2022-09-02T00:11:46;22.33;;;8.70;;
42726;SDS011;28372;56.832;60.658;2022-09-02T00:14:18;26.25;;;8.57;;
42726;SDS011;28372;56.832;60.658;2022-09-02T00:16:49;51.50;;;8.38;;
42726;SDS011;28372;56.832;60.658;2022-09-02T00:19:23;115.28;;;11.57;;
42726;SDS011;28372;56.832;60.658;2022-09-02T00:21:53;102.22;;;10.80;;
42726;SDS011;28372;56.832;60.658;2022-09-02T00:24:22;33.75;;;8.68;;
42726;SDS011;28372;56.832;60.658;2022-09-02T00:26:51;42.65;;;8.40;;
42726;SDS011;28372;56.832;60.658;2022-09-02T00:29:23;96.20;;;10.57;;
42726;SDS011;28372;56.832;60.658;2022-09-02T00:31:51;69.20;;;8.10;;
42726;SDS011;28372;56.832;60.658;2022-09-02T00:34:19;46.92;;;7.90;;
42726;SDS011;28372;56.832;60.658;2022-09-02T00:36:47;22.40;;;6.75;;
42726;SDS011;28372;56.832;60.658;2022-09-02T00:39:14;62.70;;;7.72;;
42726;SDS011;28372;56.832;60.658;2022-09-02T00:41:42;40.00;;;6.75;;
42726;SDS011;28372;56.832;60.658;2022-09-02T00:44:12;24.60;;;5.57;;
42726;SDS011;28372;56.832;60.658;2022-09-02T00:46:42;150.98;;;11.25;;
42726;SDS011;28372;56.832;60.658;2022-09-02T00:49:20;28.67;;;6.30;;
42726;SDS011;28372;56.832;60.658;2022-09-02T00:54:23;31.08;;;5.88;;
42726;SDS011;28372;56.832;60.658;2022-09-02T00:56:52;47.17;;;6.10;;
42726;SDS011;28372;56.832;60.658;2022-09-02T00:59:42;53.65;;;6.28;;
42726;SDS011;28372;56.832;60.658;2022-09-02T01:02:20;44.10;;;5.60;;
42726;SDS011;28372;56.832;60.658;2022-09-02T01:04:51;35.30;;;5.78;;
42726;SDS011;28372;56.832;60.658;2022-09-02T01:07:23;42.70;;;6.07;;
42726;SDS011;28372;56.832;60.658;2022-09-02T01:09:53;37.10;;;5.50;;
42726;SDS011;28372;56.832;60.658;2022-09-02T01:12:22;34.65;;;6.00;;
42726;SDS011;28372;56.832;60.658;2022-09-02T01:14:53;30.05;;;6.07;;
42726;SDS011;28372;56.832;60.658;2022-09-02T01:17:21;32.22;;;6.10;;
42726;SDS011;28372;56.832;60.658;2022-09-02T01:19:49;44.53;;;7.05;;
42726;SDS011;28372;56.832;60.658;2022-09-02T01:22:22;38.88;;;6.15;;
42726;SDS011;28372;56.832;60.658;2022-09-02T01:24:53;62.15;;;7.97;;
42726;SDS011;28372;56.832;60.658;2022-09-02T01:27:23;104.15;;;11.23;;
42726;SDS011;28372;56.832;60.658;2022-09-02T01:29:52;30.38;;;6.57;;
42726;SDS011;28372;56.832;60.658;2022-09-02T01:32:22;33.75;;;6.82;;
42726;SDS011;28372;56.832;60.658;2022-09-02T01:34:52;79.97;;;10.13;;
42726;SDS011;28372;56.832;60.658;2022-09-02T01:37:20;25.63;;;8.00;;
42726;SDS011;28372;56.832;60.658;2022-09-02T01:39:48;33.65;;;8.35;;
42726;SDS011;28372;56.832;60.658;2022-09-02T01:42:18;51.65;;;8.77;;
42726;SDS011;28372;56.832;60.658;2022-09-02T01:44:47;40.13;;;8.07;;
42726;SDS011;28372;56.832;60.658;2022-09-02T01:47:16;44.08;;;9.40;;
42726;SDS011;28372;56.832;60.658;2022-09-02T01:49:49;62.05;;;10.75;;
42726;SDS011;28372;56.832;60.658;2022-09-02T01:52:19;36.03;;;9.75;;
42726;SDS011;28372;56.832;60.658;2022-09-02T01:54:49;51.42;;;9.75;;
42726;SDS011;28372;56.832;60.658;2022-09-02T01:57:17;45.67;;;9.52;;
42726;SDS011;28372;56.832;60.658;2022-09-02T01:59:45;38.80;;;8.88;;
42726;SDS011;28372;56.832;60.658;2022-09-02T02:02:15;30.55;;;8.32;;
42726;SDS011;28372;56.832;60.658;2022-09-02T02:04:45;40.47;;;8.70;;
42726;SDS011;28372;56.832;60.658;2022-09-02T02:07:15;24.20;;;7.68;;
42726;SDS011;28372;56.832;60.658;2022-09-02T02:09:44;31.13;;;7.05;;
42726;SDS011;28372;56.832;60.658;2022-09-02T02:12:14;26.02;;;6.90;;
42726;SDS011;28372;56.832;60.658;2022-09-02T02:14:42;88.90;;;9.35;;
42726;SDS011;28372;56.832;60.658;2022-09-02T02:17:10;20.30;;;7.15;;
42726;SDS011;28372;56.832;60.658;2022-09-02T02:19:38;32.83;;;8.02;;
42726;SDS011;28372;56.832;60.658;2022-09-02T02:22:06;32.20;;;8.07;;
42726;SDS011;28372;56.832;60.658;2022-09-02T02:24:35;48.22;;;8.98;;
42726;SDS011;28372;56.832;60.658;2022-09-02T02:27:03;34.25;;;7.70;;
42726;SDS011;28372;56.832;60.658;2022-09-02T02:29:31;32.08;;;8.82;;
42726;SDS011;28372;56.832;60.658;2022-09-02T02:31:59;28.00;;;9.32;;
42726;SDS011;28372;56.832;60.658;2022-09-02T02:34:27;23.73;;;8.63;;
42726;SDS011;28372;56.832;60.658;2022-09-02T02:36:55;45.10;;;10.88;;
42726;SDS011;28372;56.832;60.658;2022-09-02T02:39:23;18.45;;;8.68;;
42726;SDS011;28372;56.832;60.658;2022-09-02T02:41:50;20.73;;;9.00;;
42726;SDS011;28372;56.832;60.658;2022-09-02T02:44:18;13.27;;;7.85;;
42726;SDS011;28372;56.832;60.658;2022-09-02T02:46:46;13.38;;;7.47;;
42726;SDS011;28372;56.832;60.658;2022-09-02T02:49:14;12.20;;;7.40;;
42726;SDS011;28372;56.832;60.658;2022-09-02T02:51:42;13.10;;;8.07;;
42726;SDS011;28372;56.832;60.658;2022-09-02T02:54:10;15.43;;;8.95;;
42726;SDS011;28372;56.832;60.658;2022-09-02T02:56:40;17.35;;;8.40;;
42726;SDS011;28372;56.832;60.658;2022-09-02T02:59:08;25.63;;;9.90;;
42726;SDS011;28372;56.832;60.658;2022-09-02T03:01:36;37.60;;;10.95;;
42726;SDS011;28372;56.832;60.658;2022-09-02T03:04:04;294.05;;;21.13;;
42726;SDS011;28372;56.832;60.658;2022-09-02T03:06:32;11.98;;;7.43;;
42726;SDS011;28372;56.832;60.658;2022-09-02T03:09:01;21.10;;;8.65;;
42726;SDS011;28372;56.832;60.658;2022-09-02T03:11:30;14.73;;;8.77;;
42726;SDS011;28372;56.832;60.658;2022-09-02T03:13:58;17.17;;;8.88;;
42726;SDS011;28372;56.832;60.658;2022-09-02T03:16:25;17.60;;;9.63;;
42726;SDS011;28372;56.832;60.658;2022-09-02T03:18:53;15.18;;;8.68;;
42726;SDS011;28372;56.832;60.658;2022-09-02T03:21:22;18.90;;;10.45;;
42726;SDS011;28372;56.832;60.658;2022-09-02T03:23:49;20.02;;;11.13;;
42726;SDS011;28372;56.832;60.658;2022-09-02T03:26:21;17.77;;;11.75;;
42726;SDS011;28372;56.832;60.658;2022-09-02T03:28:54;12.80;;;8.40;;
42726;SDS011;28372;56.832;60.658;2022-09-02T03:31:23;15.25;;;10.57;;
42726;SDS011;28372;56.832;60.658;2022-09-02T03:33:53;19.17;;;10.85;;
42726;SDS011;28372;56.832;60.658;2022-09-02T03:36:26;21.63;;;13.93;;
42726;SDS011;28372;56.832;60.658;2022-09-02T03:38:59;16.33;;;10.65;;
42726;SDS011;28372;56.832;60.658;2022-09-02T03:41:28;17.95;;;12.75;;
42726;SDS011;28372;56.832;60.658;2022-09-02T03:43:57;15.55;;;10.90;;
42726;SDS011;28372;56.832;60.658;2022-09-02T03:46:27;13.20;;;7.68;;
42726;SDS011;28372;56.832;60.658;2022-09-02T03:48:55;12.00;;;6.40;;
42726;SDS011;28372;56.832;60.658;2022-09-02T03:51:23;16.75;;;11.45;;
42726;SDS011;28372;56.832;60.658;2022-09-02T03:53:52;14.43;;;9.25;;
42726;SDS011;28372;56.832;60.658;2022-09-02T03:56:22;16.20;;;10.52;;
42726;SDS011;28372;56.832;60.658;2022-09-02T03:58:50;17.13;;;10.38;;
42726;SDS011;28372;56.832;60.658;2022-09-02T04:01:24;15.65;;;9.55;;
42726;SDS011;28372;56.832;60.658;2022-09-02T04:04:02;17.80;;;11.38;;
42726;SDS011;28372;56.832;60.658;2022-09-02T04:06:33;18.73;;;11.82;;
42726;SDS011;28372;56.832;60.658;2022-09-02T04:09:02;18.50;;;11.75;;
42726;SDS011;28372;56.832;60.658;2022-09-02T04:11:32;14.20;;;8.55;;
42726;SDS011;28372;56.832;60.658;2022-09-02T04:13:59;19.30;;;12.52;;
42726;SDS011;28372;56.832;60.658;2022-09-02T04:16:28;15.40;;;10.63;;
42726;SDS011;28372;56.832;60.658;2022-09-02T04:19:02;14.85;;;10.48;;
42726;SDS011;28372;56.832;60.658;2022-09-02T04:21:32;19.92;;;12.93;;
42726;SDS011;28372;56.832;60.658;2022-09-02T04:24:02;16.20;;;11.18;;
42726;SDS011;28372;56.832;60.658;2022-09-02T04:26:31;17.27;;;11.30;;
42726;SDS011;28372;56.832;60.658;2022-09-02T04:28:59;15.57;;;10.07;;
42726;SDS011;28372;56.832;60.658;2022-09-02T04:31:28;13.65;;;9.35;;
42726;SDS011;28372;56.832;60.658;2022-09-02T04:33:58;16.23;;;11.45;;
42726;SDS011;28372;56.832;60.658;2022-09-02T04:36:27;15.70;;;10.63;;
42726;SDS011;28372;56.832;60.658;2022-09-02T04:39:00;17.40;;;10.10;;
42726;SDS011;28372;56.832;60.658;2022-09-02T04:41:30;18.30;;;10.45;;
42726;SDS011;28372;56.832;60.658;2022-09-02T04:44:05;19.98;;;13.20;;
42726;SDS011;28372;56.832;60.658;2022-09-02T04:46:37;20.20;;;12.35;;
42726;SDS011;28372;56.832;60.658;2022-09-02T04:49:09;23.00;;;15.05;;
42726;SDS011;28372;56.832;60.658;2022-09-02T04:51:39;19.80;;;14.25;;
42726;SDS011;28372;56.832;60.658;2022-09-02T04:54:09;16.73;;;11.40;;
42726;SDS011;28372;56.832;60.658;2022-09-02T04:56:39;18.83;;;11.40;;
42726;SDS011;28372;56.832;60.658;2022-09-02T04:59:08;20.30;;;12.75;;
42726;SDS011;28372;56.832;60.658;2022-09-02T05:01:41;19.13;;;11.55;;
42726;SDS011;28372;56.832;60.658;2022-09-02T05:04:15;19.63;;;13.43;;
42726;SDS011;28372;56.832;60.658;2022-09-02T05:06:47;19.13;;;14.63;;
42726;SDS011;28372;56.832;60.658;2022-09-02T05:09:18;18.75;;;13.70;;
42726;SDS011;28372;56.832;60.658;2022-09-02T05:11:53;19.25;;;14.25;;
42726;SDS011;28372;56.832;60.658;2022-09-02T05:14:27;19.23;;;12.27;;
42726;SDS011;28372;56.832;60.658;2022-09-02T05:16:59;17.58;;;11.32;;
42726;SDS011;28372;56.832;60.658;2022-09-02T05:19:35;17.55;;;10.52;;
42726;SDS011;28372;56.832;60.658;2022-09-02T05:22:03;18.42;;;12.57;;
42726;SDS011;28372;56.832;60.658;2022-09-02T05:24:35;21.65;;;13.63;;
42726;SDS011;28372;56.832;60.658;2022-09-02T05:27:06;20.05;;;15.27;;
42726;SDS011;28372;56.832;60.658;2022-09-02T05:29:35;18.95;;;13.73;;
42726;SDS011;28372;56.832;60.658;2022-09-02T05:32:03;18.20;;;11.32;;
42726;SDS011;28372;56.832;60.658;2022-09-02T05:34:31;19.40;;;10.57;;
42726;SDS011;28372;56.832;60.658;2022-09-02T05:37:01;19.65;;;13.05;;
42726;SDS011;28372;56.832;60.658;2022-09-02T05:39:31;18.50;;;13.18;;
42726;SDS011;28372;56.832;60.658;2022-09-02T05:41:59;15.77;;;10.95;;
42726;SDS011;28372;56.832;60.658;2022-09-02T05:44:27;17.85;;;11.88;;
42726;SDS011;28372;56.832;60.658;2022-09-02T05:46:58;17.50;;;11.95;;
42726;SDS011;28372;56.832;60.658;2022-09-02T05:49:26;21.15;;;16.33;;
42726;SDS011;28372;56.832;60.658;2022-09-02T05:52:06;21.08;;;14.52;;
42726;SDS011;28372;56.832;60.658;2022-09-02T05:54:39;20.75;;;15.13;;
42726;SDS011;28372;56.832;60.658;2022-09-02T05:57:12;18.33;;;12.85;;
42726;SDS011;28372;56.832;60.658;2022-09-02T05:59:56;19.63;;;12.00;;
42726;SDS011;28372;56.832;60.658;2022-09-02T06:02:43;19.52;;;12.10;;
42726;SDS011;28372;56.832;60.658;2022-09-02T06:05:25;19.85;;;13.05;;
42726;SDS011;28372;56.832;60.658;2022-09-02T06:08:05;22.55;;;13.90;;
42726;SDS011;28372;56.832;60.658;2022-09-02T06:10:39;17.45;;;12.05;;
42726;SDS011;28372;56.832;60.658;2022-09-02T06:13:14;18.83;;;11.52;;
42726;SDS011;28372;56.832;60.658;2022-09-02T06:15:42;22.25;;;16.33;;
42726;SDS011;28372;56.832;60.658;2022-09-02T06:18:11;19.33;;;15.27;;
42726;SDS011;28372;56.832;60.658;2022-09-02T06:20:44;17.67;;;14.10;;
42726;SDS011;28372;56.832;60.658;2022-09-02T06:23:14;20.58;;;14.05;;
42726;SDS011;28372;56.832;60.658;2022-09-02T06:25:45;19.90;;;14.48;;
42726;SDS011;28372;56.832;60.658;2022-09-02T06:28:14;20.30;;;13.55;;
42726;SDS011;28372;56.832;60.658;2022-09-02T06:30:45;19.85;;;13.80;;
42726;SDS011;28372;56.832;60.658;2022-09-02T06:33:19;21.08;;;13.60;;
42726;SDS011;28372;56.832;60.658;2022-09-02T06:35:47;17.48;;;12.23;;
42726;SDS011;28372;56.832;60.658;2022-09-02T06:38:16;20.90;;;12.60;;
42726;SDS011;28372;56.832;60.658;2022-09-02T06:40:47;15.23;;;12.27;;
42726;SDS011;28372;56.832;60.658;2022-09-02T06:43:22;16.55;;;11.55;;
42726;SDS011;28372;56.832;60.658;2022-09-02T06:46:17;15.75;;;10.25;;
42726;SDS011;28372;56.832;60.658;2022-09-02T06:48:50;17.55;;;11.20;;
42726;SDS011;28372;56.832;60.658;2022-09-02T06:51:22;13.75;;;9.82;;
42726;SDS011;28372;56.832;60.658;2022-09-02T06:53:53;16.05;;;10.70;;
42726;SDS011;28372;56.832;60.658;2022-09-02T06:56:23;15.25;;;10.65;;
42726;SDS011;28372;56.832;60.658;2022-09-02T06:58:53;15.10;;;9.30;;
42726;SDS011;28372;56.832;60.658;2022-09-02T07:01:32;14.63;;;9.93;;
42726;SDS011;28372;56.832;60.658;2022-09-02T07:04:02;15.75;;;9.82;;
42726;SDS011;28372;56.832;60.658;2022-09-02T07:06:51;13.95;;;10.20;;
42726;SDS011;28372;56.832;60.658;2022-09-02T07:09:26;15.05;;;9.63;;
42726;SDS011;28372;56.832;60.658;2022-09-02T07:12:04;14.05;;;9.20;;
42726;SDS011;28372;56.832;60.658;2022-09-02T07:14:37;15.60;;;10.48;;
42726;SDS011;28372;56.832;60.658;2022-09-02T07:17:09;14.98;;;9.60;;
42726;SDS011;28372;56.832;60.658;2022-09-02T07:19:38;16.83;;;10.00;;
42726;SDS011;28372;56.832;60.658;2022-09-02T07:22:06;16.00;;;9.95;;
42726;SDS011;28372;56.832;60.658;2022-09-02T07:24:39;14.05;;;10.40;;
42726;SDS011;28372;56.832;60.658;2022-09-02T07:27:08;16.15;;;9.40;;
42726;SDS011;28372;56.832;60.658;2022-09-02T07:29:37;12.75;;;9.68;;
42726;SDS011;28372;56.832;60.658;2022-09-02T07:32:09;12.38;;;8.52;;
42726;SDS011;28372;56.832;60.658;2022-09-02T07:34:37;16.15;;;9.35;;
42726;SDS011;28372;56.832;60.658;2022-09-02T07:37:05;14.10;;;10.13;;
42726;SDS011;28372;56.832;60.658;2022-09-02T07:39:38;16.20;;;10.32;;
42726;SDS011;28372;56.832;60.658;2022-09-02T07:42:08;14.68;;;9.00;;
42726;SDS011;28372;56.832;60.658;2022-09-02T07:44:36;15.35;;;8.48;;
42726;SDS011;28372;56.832;60.658;2022-09-02T07:47:05;15.85;;;9.38;;
42726;SDS011;28372;56.832;60.658;2022-09-02T07:49:37;16.30;;;8.95;;
42726;SDS011;28372;56.832;60.658;2022-09-02T07:52:26;13.00;;;8.10;;
42726;SDS011;28372;56.832;60.658;2022-09-02T07:54:54;15.85;;;9.00;;
42726;SDS011;28372;56.832;60.658;2022-09-02T07:57:23;12.05;;;8.13;;
42726;SDS011;28372;56.832;60.658;2022-09-02T07:59:51;11.85;;;8.70;;
42726;SDS011;28372;56.832;60.658;2022-09-02T08:02:19;12.45;;;8.35;;
42726;SDS011;28372;56.832;60.658;2022-09-02T08:04:46;14.13;;;8.02;;
42726;SDS011;28372;56.832;60.658;2022-09-02T08:07:14;9.05;;;7.20;;
42726;SDS011;28372;56.832;60.658;2022-09-02T08:09:44;12.85;;;7.38;;
42726;SDS011;28372;56.832;60.658;2022-09-02T08:12:12;13.55;;;7.45;;
42726;SDS011;28372;56.832;60.658;2022-09-02T08:14:42;10.05;;;6.90;;
42726;SDS011;28372;56.832;60.658;2022-09-02T08:17:09;11.23;;;6.63;;
42726;SDS011;28372;56.832;60.658;2022-09-02T08:19:37;10.18;;;5.82;;
42726;SDS011;28372;56.832;60.658;2022-09-02T08:22:05;13.02;;;6.55;;
42726;SDS011;28372;56.832;60.658;2022-09-02T08:24:32;11.43;;;6.70;;
42726;SDS011;28372;56.832;60.658;2022-09-02T08:27:00;11.43;;;6.63;;
42726;SDS011;28372;56.832;60.658;2022-09-02T08:29:28;10.30;;;6.15;;
42726;SDS011;28372;56.832;60.658;2022-09-02T08:31:55;10.60;;;6.15;;
42726;SDS011;28372;56.832;60.658;2022-09-02T08:34:23;9.88;;;6.35;;
42726;SDS011;28372;56.832;60.658;2022-09-02T08:36:50;10.23;;;6.20;;
42726;SDS011;28372;56.832;60.658;2022-09-02T08:39:22;11.60;;;6.87;;
42726;SDS011;28372;56.832;60.658;2022-09-02T08:44:21;11.80;;;5.65;;
42726;SDS011;28372;56.832;60.658;2022-09-02T08:46:51;12.77;;;6.25;;
42726;SDS011;28372;56.832;60.658;2022-09-02T08:49:29;12.77;;;5.97;;
42726;SDS011;28372;56.832;60.658;2022-09-02T08:52:02;13.52;;;6.15;;
42726;SDS011;28372;56.832;60.658;2022-09-02T08:54:38;10.80;;;6.20;;
42726;SDS011;28372;56.832;60.658;2022-09-02T08:57:12;10.48;;;6.03;;
42726;SDS011;28372;56.832;60.658;2022-09-02T08:59:39;9.98;;;6.30;;
42726;SDS011;28372;56.832;60.658;2022-09-02T09:02:17;11.63;;;5.88;;
42726;SDS011;28372;56.832;60.658;2022-09-02T09:05:06;13.98;;;6.55;;
42726;SDS011;28372;56.832;60.658;2022-09-02T09:16:38;10.55;;;6.25;;
42726;SDS011;28372;56.832;60.658;2022-09-02T09:19:15;10.88;;;5.53;;
42726;SDS011;28372;56.832;60.658;2022-09-02T09:21:54;12.93;;;6.25;;
42726;SDS011;28372;56.832;60.658;2022-09-02T09:24:33;11.75;;;5.70;;
42726;SDS011;28372;56.832;60.658;2022-09-02T09:27:17;12.18;;;6.53;;
42726;SDS011;28372;56.832;60.658;2022-09-02T09:29:47;13.55;;;5.93;;
42726;SDS011;28372;56.832;60.658;2022-09-02T09:32:58;12.90;;;6.40;;
42726;SDS011;28372;56.832;60.658;2022-09-02T09:35:13;12.93;;;6.22;;
42726;SDS011;28372;56.832;60.658;2022-09-02T09:37:43;14.90;;;6.18;;
42726;SDS011;28372;56.832;60.658;2022-09-02T09:45:45;10.40;;;5.28;;
42726;SDS011;28372;56.832;60.658;2022-09-02T09:53:25;15.43;;;7.13;;
42726;SDS011;28372;56.832;60.658;2022-09-02T09:55:54;10.82;;;5.90;;
42726;SDS011;28372;56.832;60.658;2022-09-02T10:01:19;10.95;;;6.25;;
42726;SDS011;28372;56.832;60.658;2022-09-02T10:03:58;11.93;;;6.68;;
42726;SDS011;28372;56.832;60.658;2022-09-02T10:07:11;12.68;;;7.68;;
42726;SDS011;28372;56.832;60.658;2022-09-02T10:09:39;10.57;;;7.30;;
42726;SDS011;28372;56.832;60.658;2022-09-02T10:12:10;9.90;;;7.15;;
42726;SDS011;28372;56.832;60.658;2022-09-02T10:17:22;13.27;;;7.05;;
42726;SDS011;28372;56.832;60.658;2022-09-02T10:31:28;11.73;;;6.85;;
42726;SDS011;28372;56.832;60.658;2022-09-02T10:40:03;11.00;;;7.38;;
42726;SDS011;28372;56.832;60.658;2022-09-02T10:45:45;9.82;;;5.97;;
42726;SDS011;28372;56.832;60.658;2022-09-02T10:48:32;11.25;;;5.47;;
42726;SDS011;28372;56.832;60.658;2022-09-02T10:54:06;11.00;;;5.35;;
42726;SDS011;28372;56.832;60.658;2022-09-02T10:59:47;11.23;;;7.15;;
42726;SDS011;28372;56.832;60.658;2022-09-02T11:02:24;12.30;;;6.70;;
42726;SDS011;28372;56.832;60.658;2022-09-02T11:08:11;13.27;;;5.75;;
42726;SDS011;28372;56.832;60.658;2022-09-02T11:16:21;11.85;;;5.68;;
42726;SDS011;28372;56.832;60.658;2022-09-02T11:18:59;12.25;;;5.63;;
42726;SDS011;28372;56.832;60.658;2022-09-02T11:24:25;11.57;;;5.45;;
42726;SDS011;28372;56.832;60.658;2022-09-02T11:27:00;12.35;;;5.10;;
42726;SDS011;28372;56.832;60.658;2022-09-02T11:30:03;10.68;;;4.93;;
42726;SDS011;28372;56.832;60.658;2022-09-02T11:32:40;15.57;;;5.15;;
42726;SDS011;28372;56.832;60.658;2022-09-02T11:35:35;10.20;;;4.40;;
42726;SDS011;28372;56.832;60.658;2022-09-02T11:40:54;10.73;;;4.30;;
42726;SDS011;28372;56.832;60.658;2022-09-02T11:50:34;8.15;;;4.78;;
42726;SDS011;28372;56.832;60.658;2022-09-02T11:55:21;10.65;;;4.95;;
42726;SDS011;28372;56.832;60.658;2022-09-02T11:57:58;12.00;;;5.20;;
42726;SDS011;28372;56.832;60.658;2022-09-02T12:00:29;11.15;;;5.15;;
42726;SDS011;28372;56.832;60.658;2022-09-02T12:05:48;9.32;;;4.38;;
42726;SDS011;28372;56.832;60.658;2022-09-02T12:10:56;8.43;;;4.70;;
42726;SDS011;28372;56.832;60.658;2022-09-02T12:13:39;12.27;;;4.70;;
42726;SDS011;28372;56.832;60.658;2022-09-02T12:21:35;10.15;;;4.38;;
42726;SDS011;28372;56.832;60.658;2022-09-02T12:24:23;13.75;;;4.68;;
42726;SDS011;28372;56.832;60.658;2022-09-02T12:31:53;14.15;;;5.25;;
42726;SDS011;28372;56.832;60.658;2022-09-02T12:41:55;15.60;;;4.45;;
42726;SDS011;28372;56.832;60.658;2022-09-02T12:44:49;21.08;;;11.48;;
42726;SDS011;28372;56.832;60.658;2022-09-02T12:55:57;10.10;;;4.13;;
42726;SDS011;28372;56.832;60.658;2022-09-02T13:01:43;8.38;;;4.53;;
42726;SDS011;28372;56.832;60.658;2022-09-02T13:18:54;12.50;;;4.45;;
42726;SDS011;28372;56.832;60.658;2022-09-02T13:27:14;10.25;;;4.45;;
42726;SDS011;28372;56.832;60.658;2022-09-02T13:33:03;12.23;;;4.90;;
42726;SDS011;28372;56.832;60.658;2022-09-02T13:35:37;9.10;;;4.35;;
42726;SDS011;28372;56.832;60.658;2022-09-02T13:38:10;9.48;;;4.40;;
42726;SDS011;28372;56.832;60.658;2022-09-02T13:40:39;8.30;;;4.47;;
42726;SDS011;28372;56.832;60.658;2022-09-02T13:45:39;9.00;;;4.20;;
42726;SDS011;28372;56.832;60.658;2022-09-02T13:48:09;8.98;;;4.57;;
42726;SDS011;28372;56.832;60.658;2022-09-02T13:50:45;13.25;;;4.45;;
42726;SDS011;28372;56.832;60.658;2022-09-02T13:56:21;10.00;;;4.65;;
42726;SDS011;28372;56.832;60.658;2022-09-02T13:58:51;10.70;;;4.68;;
42726;SDS011;28372;56.832;60.658;2022-09-02T14:03:56;12.40;;;5.07;;
42726;SDS011;28372;56.832;60.658;2022-09-02T14:06:27;9.30;;;4.40;;
42726;SDS011;28372;56.832;60.658;2022-09-02T14:09:00;10.20;;;4.35;;
42726;SDS011;28372;56.832;60.658;2022-09-02T14:11:37;9.07;;;4.60;;
42726;SDS011;28372;56.832;60.658;2022-09-02T14:14:15;36.05;;;24.48;;
42726;SDS011;28372;56.832;60.658;2022-09-02T14:16:46;9.65;;;5.43;;
42726;SDS011;28372;56.832;60.658;2022-09-02T14:21:48;9.32;;;4.60;;
42726;SDS011;28372;56.832;60.658;2022-09-02T14:24:19;9.55;;;4.30;;
42726;SDS011;28372;56.832;60.658;2022-09-02T14:26:52;9.38;;;4.70;;
42726;SDS011;28372;56.832;60.658;2022-09-02T14:29:22;8.85;;;4.40;;
42726;SDS011;28372;56.832;60.658;2022-09-02T14:34:45;8.57;;;4.50;;
42726;SDS011;28372;56.832;60.658;2022-09-02T14:37:31;8.55;;;4.18;;
42726;SDS011;28372;56.832;60.658;2022-09-02T14:42:26;9.07;;;4.25;;
42726;SDS011;28372;56.832;60.658;2022-09-02T14:44:55;6.93;;;3.90;;
42726;SDS011;28372;56.832;60.658;2022-09-02T14:47:25;7.20;;;4.32;;
42726;SDS011;28372;56.832;60.658;2022-09-02T14:49:55;11.77;;;6.35;;
42726;SDS011;28372;56.832;60.658;2022-09-02T14:54:53;8.88;;;5.10;;
42726;SDS011;28372;56.832;60.658;2022-09-02T14:57:29;8.45;;;4.55;;
42726;SDS011;28372;56.832;60.658;2022-09-02T15:02:38;7.45;;;4.80;;
42726;SDS011;28372;56.832;60.658;2022-09-02T15:05:09;10.38;;;4.22;;
42726;SDS011;28372;56.832;60.658;2022-09-02T15:07:40;9.38;;;4.65;;
42726;SDS011;28372;56.832;60.658;2022-09-02T15:10:08;8.93;;;4.63;;
42726;SDS011;28372;56.832;60.658;2022-09-02T15:12:46;8.02;;;4.30;;
42726;SDS011;28372;56.832;60.658;2022-09-02T15:15:22;9.70;;;4.28;;
42726;SDS011;28372;56.832;60.658;2022-09-02T15:17:50;7.78;;;4.20;;
42726;SDS011;28372;56.832;60.658;2022-09-02T15:20:18;5.97;;;3.97;;
42726;SDS011;28372;56.832;60.658;2022-09-02T15:22:47;6.70;;;3.78;;
42726;SDS011;28372;56.832;60.658;2022-09-02T15:25:16;6.30;;;3.42;;
42726;SDS011;28372;56.832;60.658;2022-09-02T15:27:44;6.18;;;3.70;;
42726;SDS011;28372;56.832;60.658;2022-09-02T15:30:11;5.43;;;3.42;;
42726;SDS011;28372;56.832;60.658;2022-09-02T15:32:39;6.50;;;3.58;;
42726;SDS011;28372;56.832;60.658;2022-09-02T15:35:07;6.90;;;3.65;;
42726;SDS011;28372;56.832;60.658;2022-09-02T15:37:35;6.10;;;3.90;;
42726;SDS011;28372;56.832;60.658;2022-09-02T15:40:04;7.22;;;3.70;;
42726;SDS011;28372;56.832;60.658;2022-09-02T15:42:37;7.82;;;3.63;;
42726;SDS011;28372;56.832;60.658;2022-09-02T15:45:05;6.55;;;3.80;;
42726;SDS011;28372;56.832;60.658;2022-09-02T15:47:37;5.82;;;3.75;;
42726;SDS011;28372;56.832;60.658;2022-09-02T15:50:04;7.95;;;3.65;;
42726;SDS011;28372;56.832;60.658;2022-09-02T15:52:32;5.60;;;3.83;;
42726;SDS011;28372;56.832;60.658;2022-09-02T15:55:01;7.40;;;4.45;;
42726;SDS011;28372;56.832;60.658;2022-09-02T15:57:29;8.23;;;4.10;;
42726;SDS011;28372;56.832;60.658;2022-09-02T15:59:57;8.38;;;4.13;;
42726;SDS011;28372;56.832;60.658;2022-09-02T16:02:25;7.40;;;3.80;;
42726;SDS011;28372;56.832;60.658;2022-09-02T16:04:53;7.35;;;3.80;;
42726;SDS011;28372;56.832;60.658;2022-09-02T16:07:22;8.00;;;4.13;;
42726;SDS011;28372;56.832;60.658;2022-09-02T16:09:50;6.10;;;4.00;;
42726;SDS011;28372;56.832;60.658;2022-09-02T16:12:17;6.03;;;3.67;;
42726;SDS011;28372;56.832;60.658;2022-09-02T16:14:45;7.55;;;3.83;;
42726;SDS011;28372;56.832;60.658;2022-09-02T16:17:16;7.50;;;4.22;;
42726;SDS011;28372;56.832;60.658;2022-09-02T16:19:44;6.25;;;3.65;;
42726;SDS011;28372;56.832;60.658;2022-09-02T16:22:11;5.82;;;3.70;;
42726;SDS011;28372;56.832;60.658;2022-09-02T16:24:39;6.82;;;3.53;;
42726;SDS011;28372;56.832;60.658;2022-09-02T16:27:07;6.72;;;3.70;;
42726;SDS011;28372;56.832;60.658;2022-09-02T16:29:35;5.75;;;3.50;;
42726;SDS011;28372;56.832;60.658;2022-09-02T16:32:05;6.85;;;3.70;;
42726;SDS011;28372;56.832;60.658;2022-09-02T16:34:53;7.60;;;4.10;;
42726;SDS011;28372;56.832;60.658;2022-09-02T16:37:21;6.95;;;3.97;;
42726;SDS011;28372;56.832;60.658;2022-09-02T16:39:49;6.05;;;3.25;;
42726;SDS011;28372;56.832;60.658;2022-09-02T16:42:17;4.78;;;3.05;;
42726;SDS011;28372;56.832;60.658;2022-09-02T16:44:50;5.82;;;3.10;;
42726;SDS011;28372;56.832;60.658;2022-09-02T16:47:17;6.18;;;2.97;;
42726;SDS011;28372;56.832;60.658;2022-09-02T16:49:45;5.78;;;3.45;;
42726;SDS011;28372;56.832;60.658;2022-09-02T16:52:13;5.18;;;3.15;;
42726;SDS011;28372;56.832;60.658;2022-09-02T16:54:41;7.03;;;3.78;;
42726;SDS011;28372;56.832;60.658;2022-09-02T16:57:09;4.78;;;3.03;;
42726;SDS011;28372;56.832;60.658;2022-09-02T16:59:37;5.85;;;3.78;;
42726;SDS011;28372;56.832;60.658;2022-09-02T17:02:05;5.55;;;3.10;;
42726;SDS011;28372;56.832;60.658;2022-09-02T17:04:33;6.60;;;3.35;;
42726;SDS011;28372;56.832;60.658;2022-09-02T17:07:00;5.88;;;3.45;;
42726;SDS011;28372;56.832;60.658;2022-09-02T17:09:28;7.15;;;3.58;;
42726;SDS011;28372;56.832;60.658;2022-09-02T17:11:55;5.75;;;3.53;;
42726;SDS011;28372;56.832;60.658;2022-09-02T17:14:23;5.97;;;3.95;;
42726;SDS011;28372;56.832;60.658;2022-09-02T17:16:51;7.15;;;3.75;;
42726;SDS011;28372;56.832;60.658;2022-09-02T17:19:20;7.68;;;3.50;;
42726;SDS011;28372;56.832;60.658;2022-09-02T17:21:52;6.95;;;4.13;;
42726;SDS011;28372;56.832;60.658;2022-09-02T17:24:21;6.68;;;3.80;;
42726;SDS011;28372;56.832;60.658;2022-09-02T17:26:51;5.97;;;3.67;;